sensor_id;sensor_type;location;lat;lon;timestamp;temperature;humidity
31765;DHT22;18338;53.240;8.798;2022-11-25T00:01:21;3.00;99.90
31765;DHT22;18338;53.240;8.798;2022-11-25T00:03:51;3.10;99.90
31765;DHT22;18338;53.240;8.798;2022-11-25T00:06:34;3.20;99.90
31765;DHT22;18338;53.240;8.798;2022-11-25T00:09:09;3.40;99.90
31765;DHT22;18338;53.240;8.798;2022-11-25T00:11:41;3.40;99.90
31765;DHT22;18338;53.240;8.798;2022-11-25T00:14:13;3.60;99.90
31765;DHT22;18338;53.240;8.798;2022-11-25T00:16:41;3.70;99.90
31765;DHT22;18338;53.240;8.798;2022-11-25T00:19:14;3.80;99.90
31765;DHT22;18338;53.240;8.798;2022-11-25T00:21:41;3.80;99.90
31765;DHT22;18338;53.240;8.798;2022-11-25T00:24:09;3.80;99.90
31765;DHT22;18338;53.240;8.798;2022-11-25T00:26:39;3.80;99.90
31765;DHT22;18338;53.240;8.798;2022-11-25T00:29:08;3.80;99.90
31765;DHT22;18338;53.240;8.798;2022-11-25T00:31:37;3.70;99.90
31765;DHT22;18338;53.240;8.798;2022-11-25T00:34:05;3.70;99.90
31765;DHT22;18338;53.240;8.798;2022-11-25T00:36:35;3.80;99.90
31765;DHT22;18338;53.240;8.798;2022-11-25T00:39:05;3.80;99.90
31765;DHT22;18338;53.240;8.798;2022-11-25T00:41:33;3.70;99.90
31765;DHT22;18338;53.240;8.798;2022-11-25T00:44:20;3.70;99.90
31765;DHT22;18338;53.240;8.798;2022-11-25T00:47:16;3.70;99.90
31765;DHT22;18338;53.240;8.798;2022-11-25T00:49:51;3.60;99.90
31765;DHT22;18338;53.240;8.798;2022-11-25T00:52:26;3.60;99.90
31765;DHT22;18338;53.240;8.798;2022-11-25T00:54:54;3.60;99.90
31765;DHT22;18338;53.240;8.798;2022-11-25T00:57:22;3.70;99.90
31765;DHT22;18338;53.240;8.798;2022-11-25T00:59:52;3.70;99.90
31765;DHT22;18338;53.240;8.798;2022-11-25T01:02:20;3.70;99.90
31765;DHT22;18338;53.240;8.798;2022-11-25T01:04:51;3.70;99.90
31765;DHT22;18338;53.240;8.798;2022-11-25T01:07:19;3.80;99.90
31765;DHT22;18338;53.240;8.798;2022-11-25T01:09:49;3.80;99.90
31765;DHT22;18338;53.240;8.798;2022-11-25T01:12:17;3.70;99.90
31765;DHT22;18338;53.240;8.798;2022-11-25T01:14:45;3.70;99.90
31765;DHT22;18338;53.240;8.798;2022-11-25T01:17:15;3.80;99.90
31765;DHT22;18338;53.240;8.798;2022-11-25T01:19:42;3.70;99.90
31765;DHT22;18338;53.240;8.798;2022-11-25T01:22:10;3.60;99.90
31765;DHT22;18338;53.240;8.798;2022-11-25T01:24:38;3.50;99.90
31765;DHT22;18338;53.240;8.798;2022-11-25T01:27:06;3.30;99.90
31765;DHT22;18338;53.240;8.798;2022-11-25T01:29:33;3.20;99.90
31765;DHT22;18338;53.240;8.798;2022-11-25T01:32:01;3.10;99.90
31765;DHT22;18338;53.240;8.798;2022-11-25T01:34:30;3.10;99.90
31765;DHT22;18338;53.240;8.798;2022-11-25T01:37:00;3.00;99.90
31765;DHT22;18338;53.240;8.798;2022-11-25T01:39:30;2.90;99.90
31765;DHT22;18338;53.240;8.798;2022-11-25T01:42:00;2.80;99.90
31765;DHT22;18338;53.240;8.798;2022-11-25T01:44:29;2.70;99.90
31765;DHT22;18338;53.240;8.798;2022-11-25T01:47:13;2.60;99.90
31765;DHT22;18338;53.240;8.798;2022-11-25T01:50:01;2.60;99.90
31765;DHT22;18338;53.240;8.798;2022-11-25T01:52:33;2.50;99.90
31765;DHT22;18338;53.240;8.798;2022-11-25T01:55:09;2.50;99.90
31765;DHT22;18338;53.240;8.798;2022-11-25T01:57:45;2.40;99.90
31765;DHT22;18338;53.240;8.798;2022-11-25T02:00:15;2.40;99.90
31765;DHT22;18338;53.240;8.798;2022-11-25T02:02:44;2.30;99.90
31765;DHT22;18338;53.240;8.798;2022-11-25T02:05:16;2.30;99.90
31765;DHT22;18338;53.240;8.798;2022-11-25T02:07:47;2.30;99.90
31765;DHT22;18338;53.240;8.798;2022-11-25T02:10:21;2.30;99.90
31765;DHT22;18338;53.240;8.798;2022-11-25T02:12:51;2.30;99.90
31765;DHT22;18338;53.240;8.798;2022-11-25T02:15:18;2.30;99.90
31765;DHT22;18338;53.240;8.798;2022-11-25T02:17:47;2.30;99.90
31765;DHT22;18338;53.240;8.798;2022-11-25T02:20:20;2.50;99.90
31765;DHT22;18338;53.240;8.798;2022-11-25T02:22:51;2.50;99.90
31765;DHT22;18338;53.240;8.798;2022-11-25T02:25:24;2.50;99.90
31765;DHT22;18338;53.240;8.798;2022-11-25T02:28:21;2.60;99.90
31765;DHT22;18338;53.240;8.798;2022-11-25T02:30:54;2.70;99.90
31765;DHT22;18338;53.240;8.798;2022-11-25T02:33:22;2.80;99.90
31765;DHT22;18338;53.240;8.798;2022-11-25T02:36:02;3.00;99.90
31765;DHT22;18338;53.240;8.798;2022-11-25T02:41:48;3.10;99.90
31765;DHT22;18338;53.240;8.798;2022-11-25T02:44:18;3.30;99.90
31765;DHT22;18338;53.240;8.798;2022-11-25T02:46:46;3.30;99.90
31765;DHT22;18338;53.240;8.798;2022-11-25T02:49:14;3.30;99.90
31765;DHT22;18338;53.240;8.798;2022-11-25T02:51:43;3.20;99.90
31765;DHT22;18338;53.240;8.798;2022-11-25T02:54:13;3.10;99.90
31765;DHT22;18338;53.240;8.798;2022-11-25T02:56:41;3.00;99.90
31765;DHT22;18338;53.240;8.798;2022-11-25T02:59:09;3.10;99.90
31765;DHT22;18338;53.240;8.798;2022-11-25T03:01:40;3.10;99.90
31765;DHT22;18338;53.240;8.798;2022-11-25T03:04:08;3.10;99.90
31765;DHT22;18338;53.240;8.798;2022-11-25T03:06:36;3.00;99.90
31765;DHT22;18338;53.240;8.798;2022-11-25T03:09:05;3.10;99.90
31765;DHT22;18338;53.240;8.798;2022-11-25T03:11:33;3.10;99.90
31765;DHT22;18338;53.240;8.798;2022-11-25T03:14:18;3.10;99.90
31765;DHT22;18338;53.240;8.798;2022-11-25T03:16:46;3.10;99.90
31765;DHT22;18338;53.240;8.798;2022-11-25T03:19:13;3.10;99.90
31765;DHT22;18338;53.240;8.798;2022-11-25T03:21:40;3.10;99.90
31765;DHT22;18338;53.240;8.798;2022-11-25T03:24:09;3.10;99.90
31765;DHT22;18338;53.240;8.798;2022-11-25T03:26:35;3.20;99.90
31765;DHT22;18338;53.240;8.798;2022-11-25T03:29:03;3.30;99.90
31765;DHT22;18338;53.240;8.798;2022-11-25T03:31:29;3.40;99.90
31765;DHT22;18338;53.240;8.798;2022-11-25T03:33:56;3.50;99.90
31765;DHT22;18338;53.240;8.798;2022-11-25T03:36:23;3.60;99.90
31765;DHT22;18338;53.240;8.798;2022-11-25T03:38:49;3.60;99.90
31765;DHT22;18338;53.240;8.798;2022-11-25T03:41:16;3.70;99.90
31765;DHT22;18338;53.240;8.798;2022-11-25T03:43:43;3.70;99.90
31765;DHT22;18338;53.240;8.798;2022-11-25T03:46:11;3.80;99.90
31765;DHT22;18338;53.240;8.798;2022-11-25T03:48:38;4.00;99.90
31765;DHT22;18338;53.240;8.798;2022-11-25T03:51:05;4.20;99.90
31765;DHT22;18338;53.240;8.798;2022-11-25T03:53:32;4.30;99.90
31765;DHT22;18338;53.240;8.798;2022-11-25T03:55:59;4.40;99.90
31765;DHT22;18338;53.240;8.798;2022-11-25T03:58:26;4.40;99.90
31765;DHT22;18338;53.240;8.798;2022-11-25T04:00:52;4.50;99.90
31765;DHT22;18338;53.240;8.798;2022-11-25T04:03:19;4.50;99.90
31765;DHT22;18338;53.240;8.798;2022-11-25T04:05:46;4.50;99.90
31765;DHT22;18338;53.240;8.798;2022-11-25T04:08:13;4.60;99.90
31765;DHT22;18338;53.240;8.798;2022-11-25T04:10:40;4.60;99.90
31765;DHT22;18338;53.240;8.798;2022-11-25T04:13:06;4.60;99.90
31765;DHT22;18338;53.240;8.798;2022-11-25T04:15:33;4.60;99.90
31765;DHT22;18338;53.240;8.798;2022-11-25T04:18:00;4.60;99.90
31765;DHT22;18338;53.240;8.798;2022-11-25T04:20:27;4.60;99.90
31765;DHT22;18338;53.240;8.798;2022-11-25T04:22:53;4.60;99.90
31765;DHT22;18338;53.240;8.798;2022-11-25T04:25:20;4.50;99.90
31765;DHT22;18338;53.240;8.798;2022-11-25T04:27:47;4.50;99.90
31765;DHT22;18338;53.240;8.798;2022-11-25T04:30:14;4.40;99.90
31765;DHT22;18338;53.240;8.798;2022-11-25T04:32:41;4.40;99.90
31765;DHT22;18338;53.240;8.798;2022-11-25T04:35:08;4.40;99.90
31765;DHT22;18338;53.240;8.798;2022-11-25T04:37:35;4.50;99.90
31765;DHT22;18338;53.240;8.798;2022-11-25T04:40:02;4.50;99.90
31765;DHT22;18338;53.240;8.798;2022-11-25T04:42:29;4.50;99.90
31765;DHT22;18338;53.240;8.798;2022-11-25T04:45:01;4.60;99.90
31765;DHT22;18338;53.240;8.798;2022-11-25T04:47:48;4.60;99.90
31765;DHT22;18338;53.240;8.798;2022-11-25T04:50:17;4.60;99.90
31765;DHT22;18338;53.240;8.798;2022-11-25T04:52:44;4.60;99.90
31765;DHT22;18338;53.240;8.798;2022-11-25T04:55:11;4.70;99.90
31765;DHT22;18338;53.240;8.798;2022-11-25T04:57:37;4.70;99.90
31765;DHT22;18338;53.240;8.798;2022-11-25T05:00:05;4.70;99.90
31765;DHT22;18338;53.240;8.798;2022-11-25T05:02:32;4.70;99.90
31765;DHT22;18338;53.240;8.798;2022-11-25T05:04:59;4.80;99.90
31765;DHT22;18338;53.240;8.798;2022-11-25T05:07:27;4.80;99.90
31765;DHT22;18338;53.240;8.798;2022-11-25T05:09:54;4.80;99.90
31765;DHT22;18338;53.240;8.798;2022-11-25T05:12:25;4.80;99.90
31765;DHT22;18338;53.240;8.798;2022-11-25T05:14:53;4.70;99.90
31765;DHT22;18338;53.240;8.798;2022-11-25T05:17:25;4.80;99.90
31765;DHT22;18338;53.240;8.798;2022-11-25T05:19:53;4.80;99.90
31765;DHT22;18338;53.240;8.798;2022-11-25T05:22:22;4.80;99.90
31765;DHT22;18338;53.240;8.798;2022-11-25T05:24:49;4.90;99.90
31765;DHT22;18338;53.240;8.798;2022-11-25T05:27:17;4.90;99.90
31765;DHT22;18338;53.240;8.798;2022-11-25T05:29:44;5.00;99.90
31765;DHT22;18338;53.240;8.798;2022-11-25T05:32:11;5.00;99.90
31765;DHT22;18338;53.240;8.798;2022-11-25T05:34:38;5.00;99.90
31765;DHT22;18338;53.240;8.798;2022-11-25T05:37:05;5.10;99.90
31765;DHT22;18338;53.240;8.798;2022-11-25T05:39:32;5.10;99.90
31765;DHT22;18338;53.240;8.798;2022-11-25T05:42:00;5.10;99.90
31765;DHT22;18338;53.240;8.798;2022-11-25T05:44:27;5.10;99.90
31765;DHT22;18338;53.240;8.798;2022-11-25T05:46:53;5.10;99.90
31765;DHT22;18338;53.240;8.798;2022-11-25T05:49:20;5.10;99.90
31765;DHT22;18338;53.240;8.798;2022-11-25T05:51:47;5.10;99.90
31765;DHT22;18338;53.240;8.798;2022-11-25T05:54:14;5.20;99.90
31765;DHT22;18338;53.240;8.798;2022-11-25T05:56:41;5.20;99.90
31765;DHT22;18338;53.240;8.798;2022-11-25T05:59:08;5.20;99.90
31765;DHT22;18338;53.240;8.798;2022-11-25T06:01:34;5.20;99.90
31765;DHT22;18338;53.240;8.798;2022-11-25T06:04:03;5.20;99.90
31765;DHT22;18338;53.240;8.798;2022-11-25T06:06:30;5.20;99.90
31765;DHT22;18338;53.240;8.798;2022-11-25T06:08:57;5.30;99.90
31765;DHT22;18338;53.240;8.798;2022-11-25T06:11:24;5.20;99.90
31765;DHT22;18338;53.240;8.798;2022-11-25T06:13:51;5.30;99.90
31765;DHT22;18338;53.240;8.798;2022-11-25T06:16:20;5.30;99.90
31765;DHT22;18338;53.240;8.798;2022-11-25T06:18:47;5.30;99.90
31765;DHT22;18338;53.240;8.798;2022-11-25T06:21:15;5.30;99.90
31765;DHT22;18338;53.240;8.798;2022-11-25T06:23:42;5.30;99.90
31765;DHT22;18338;53.240;8.798;2022-11-25T06:26:16;5.30;99.90
31765;DHT22;18338;53.240;8.798;2022-11-25T06:28:44;5.30;99.90
31765;DHT22;18338;53.240;8.798;2022-11-25T06:31:16;5.30;99.90
31765;DHT22;18338;53.240;8.798;2022-11-25T06:33:48;5.30;99.90
31765;DHT22;18338;53.240;8.798;2022-11-25T06:36:16;5.40;99.90
31765;DHT22;18338;53.240;8.798;2022-11-25T06:38:47;5.40;99.90
31765;DHT22;18338;53.240;8.798;2022-11-25T06:41:15;5.40;99.90
31765;DHT22;18338;53.240;8.798;2022-11-25T06:43:42;5.40;99.90
31765;DHT22;18338;53.240;8.798;2022-11-25T06:46:13;5.40;99.90
31765;DHT22;18338;53.240;8.798;2022-11-25T06:48:48;5.50;99.90
31765;DHT22;18338;53.240;8.798;2022-11-25T06:51:15;5.50;99.90
31765;DHT22;18338;53.240;8.798;2022-11-25T06:53:42;5.50;99.90
31765;DHT22;18338;53.240;8.798;2022-11-25T06:58:44;5.50;99.90
31765;DHT22;18338;53.240;8.798;2022-11-25T07:03:42;5.50;99.90
31765;DHT22;18338;53.240;8.798;2022-11-25T07:06:11;5.50;99.90
31765;DHT22;18338;53.240;8.798;2022-11-25T07:08:39;5.50;99.90
31765;DHT22;18338;53.240;8.798;2022-11-25T07:11:29;5.50;99.90
31765;DHT22;18338;53.240;8.798;2022-11-25T07:13:58;5.50;99.90
31765;DHT22;18338;53.240;8.798;2022-11-25T07:16:26;5.40;99.90
31765;DHT22;18338;53.240;8.798;2022-11-25T07:18:53;5.40;99.90
31765;DHT22;18338;53.240;8.798;2022-11-25T07:21:23;5.50;99.90
31765;DHT22;18338;53.240;8.798;2022-11-25T07:23:51;5.50;99.90
31765;DHT22;18338;53.240;8.798;2022-11-25T07:26:20;5.50;99.90
31765;DHT22;18338;53.240;8.798;2022-11-25T07:28:52;5.60;99.90
31765;DHT22;18338;53.240;8.798;2022-11-25T07:31:24;5.60;99.90
31765;DHT22;18338;53.240;8.798;2022-11-25T07:34:01;5.60;99.90
31765;DHT22;18338;53.240;8.798;2022-11-25T07:36:29;5.70;99.90
31765;DHT22;18338;53.240;8.798;2022-11-25T07:38:58;5.60;99.90
31765;DHT22;18338;53.240;8.798;2022-11-25T07:41:27;5.70;99.90
31765;DHT22;18338;53.240;8.798;2022-11-25T07:43:57;5.70;99.90
31765;DHT22;18338;53.240;8.798;2022-11-25T07:46:29;5.80;99.90
31765;DHT22;18338;53.240;8.798;2022-11-25T07:48:58;5.80;99.90
31765;DHT22;18338;53.240;8.798;2022-11-25T07:54:02;5.80;99.90
31765;DHT22;18338;53.240;8.798;2022-11-25T07:56:29;5.90;99.90
31765;DHT22;18338;53.240;8.798;2022-11-25T07:58:56;5.80;99.90
31765;DHT22;18338;53.240;8.798;2022-11-25T08:01:23;5.90;99.90
31765;DHT22;18338;53.240;8.798;2022-11-25T08:03:51;5.90;99.90
31765;DHT22;18338;53.240;8.798;2022-11-25T08:06:23;5.90;99.90
31765;DHT22;18338;53.240;8.798;2022-11-25T08:08:51;5.90;99.90
31765;DHT22;18338;53.240;8.798;2022-11-25T08:11:26;5.90;99.90
31765;DHT22;18338;53.240;8.798;2022-11-25T08:13:57;5.90;99.90
31765;DHT22;18338;53.240;8.798;2022-11-25T08:16:26;5.90;99.90
31765;DHT22;18338;53.240;8.798;2022-11-25T08:18:54;5.90;99.90
31765;DHT22;18338;53.240;8.798;2022-11-25T08:21:21;6.00;99.90
31765;DHT22;18338;53.240;8.798;2022-11-25T08:23:50;5.90;99.90
31765;DHT22;18338;53.240;8.798;2022-11-25T08:26:29;5.90;99.90
31765;DHT22;18338;53.240;8.798;2022-11-25T08:29:05;5.90;99.90
31765;DHT22;18338;53.240;8.798;2022-11-25T08:31:34;5.90;99.90
31765;DHT22;18338;53.240;8.798;2022-11-25T08:34:03;6.00;99.90
31765;DHT22;18338;53.240;8.798;2022-11-25T08:36:30;6.00;99.90
31765;DHT22;18338;53.240;8.798;2022-11-25T08:39:03;6.00;99.90
31765;DHT22;18338;53.240;8.798;2022-11-25T08:41:50;6.10;99.90
31765;DHT22;18338;53.240;8.798;2022-11-25T08:44:16;6.10;99.90
31765;DHT22;18338;53.240;8.798;2022-11-25T08:46:43;6.10;99.90
31765;DHT22;18338;53.240;8.798;2022-11-25T08:49:11;6.20;99.90
31765;DHT22;18338;53.240;8.798;2022-11-25T08:51:39;6.20;99.90
31765;DHT22;18338;53.240;8.798;2022-11-25T08:54:07;6.20;99.90
31765;DHT22;18338;53.240;8.798;2022-11-25T08:56:34;6.30;99.90
31765;DHT22;18338;53.240;8.798;2022-11-25T08:59:01;6.30;99.90
31765;DHT22;18338;53.240;8.798;2022-11-25T09:01:41;6.30;99.90
31765;DHT22;18338;53.240;8.798;2022-11-25T09:04:09;6.50;99.90
31765;DHT22;18338;53.240;8.798;2022-11-25T09:06:37;6.60;99.90
31765;DHT22;18338;53.240;8.798;2022-11-25T09:09:04;6.60;99.90
31765;DHT22;18338;53.240;8.798;2022-11-25T09:11:32;6.70;99.90
31765;DHT22;18338;53.240;8.798;2022-11-25T09:13:59;6.80;99.90
31765;DHT22;18338;53.240;8.798;2022-11-25T09:16:25;6.80;99.90
31765;DHT22;18338;53.240;8.798;2022-11-25T09:18:53;6.70;99.90
31765;DHT22;18338;53.240;8.798;2022-11-25T09:21:22;6.80;99.90
31765;DHT22;18338;53.240;8.798;2022-11-25T09:23:52;6.90;99.90
31765;DHT22;18338;53.240;8.798;2022-11-25T09:26:26;6.90;99.90
31765;DHT22;18338;53.240;8.798;2022-11-25T09:28:59;7.00;99.90
31765;DHT22;18338;53.240;8.798;2022-11-25T09:31:49;7.00;99.90
31765;DHT22;18338;53.240;8.798;2022-11-25T09:34:20;7.10;99.90
31765;DHT22;18338;53.240;8.798;2022-11-25T09:36:47;7.10;99.90
31765;DHT22;18338;53.240;8.798;2022-11-25T09:39:14;7.10;99.90
31765;DHT22;18338;53.240;8.798;2022-11-25T09:44:54;7.10;99.90
31765;DHT22;18338;53.240;8.798;2022-11-25T09:48:05;7.10;99.90
31765;DHT22;18338;53.240;8.798;2022-11-25T09:50:52;7.10;99.90
31765;DHT22;18338;53.240;8.798;2022-11-25T09:53:41;7.10;99.90
31765;DHT22;18338;53.240;8.798;2022-11-25T09:56:46;7.20;99.90
31765;DHT22;18338;53.240;8.798;2022-11-25T09:59:20;7.30;99.90
31765;DHT22;18338;53.240;8.798;2022-11-25T10:02:00;7.60;99.90
31765;DHT22;18338;53.240;8.798;2022-11-25T10:04:45;7.70;99.90
31765;DHT22;18338;53.240;8.798;2022-11-25T10:07:43;7.80;99.90
31765;DHT22;18338;53.240;8.798;2022-11-25T10:10:21;7.80;99.90
31765;DHT22;18338;53.240;8.798;2022-11-25T10:12:50;7.70;99.90
31765;DHT22;18338;53.240;8.798;2022-11-25T10:15:32;7.70;99.90
31765;DHT22;18338;53.240;8.798;2022-11-25T10:18:03;7.60;99.90
31765;DHT22;18338;53.240;8.798;2022-11-25T10:20:38;7.60;99.90
31765;DHT22;18338;53.240;8.798;2022-11-25T10:23:15;7.70;99.90
31765;DHT22;18338;53.240;8.798;2022-11-25T10:25:56;7.70;99.90
31765;DHT22;18338;53.240;8.798;2022-11-25T10:28:30;7.80;99.90
31765;DHT22;18338;53.240;8.798;2022-11-25T10:33:29;7.90;99.90
31765;DHT22;18338;53.240;8.798;2022-11-25T10:36:17;7.90;99.90
31765;DHT22;18338;53.240;8.798;2022-11-25T10:39:20;7.90;99.90
31765;DHT22;18338;53.240;8.798;2022-11-25T10:44:35;8.10;99.90
31765;DHT22;18338;53.240;8.798;2022-11-25T10:50:16;8.30;99.90
31765;DHT22;18338;53.240;8.798;2022-11-25T10:52:58;8.50;99.90
31765;DHT22;18338;53.240;8.798;2022-11-25T10:55:31;8.80;99.90
31765;DHT22;18338;53.240;8.798;2022-11-25T10:58:40;8.80;99.90
31765;DHT22;18338;53.240;8.798;2022-11-25T11:01:19;8.70;99.90
31765;DHT22;18338;53.240;8.798;2022-11-25T11:03:52;8.60;99.90
31765;DHT22;18338;53.240;8.798;2022-11-25T11:06:42;8.50;99.90
31765;DHT22;18338;53.240;8.798;2022-11-25T11:09:29;8.40;99.90
31765;DHT22;18338;53.240;8.798;2022-11-25T11:12:25;8.50;99.90
31765;DHT22;18338;53.240;8.798;2022-11-25T11:15:12;8.50;99.90
31765;DHT22;18338;53.240;8.798;2022-11-25T11:17:39;8.50;99.90
31765;DHT22;18338;53.240;8.798;2022-11-25T11:22:36;8.70;99.90
31765;DHT22;18338;53.240;8.798;2022-11-25T11:27:47;8.90;99.90
31765;DHT22;18338;53.240;8.798;2022-11-25T11:30:19;9.00;99.90
31765;DHT22;18338;53.240;8.798;2022-11-25T11:36:14;9.30;99.90
31765;DHT22;18338;53.240;8.798;2022-11-25T11:41:58;9.50;99.90
31765;DHT22;18338;53.240;8.798;2022-11-25T11:52:40;9.90;99.90
31765;DHT22;18338;53.240;8.798;2022-11-25T11:58:19;10.80;99.90
31765;DHT22;18338;53.240;8.798;2022-11-25T12:04:11;11.80;99.90
31765;DHT22;18338;53.240;8.798;2022-11-25T12:06:43;13.20;99.90
31765;DHT22;18338;53.240;8.798;2022-11-25T12:09:15;14.20;99.90
31765;DHT22;18338;53.240;8.798;2022-11-25T12:11:51;13.70;99.90
31765;DHT22;18338;53.240;8.798;2022-11-25T12:14:41;13.30;99.90
31765;DHT22;18338;53.240;8.798;2022-11-25T12:17:26;12.70;99.90
31765;DHT22;18338;53.240;8.798;2022-11-25T12:22:43;12.70;99.90
31765;DHT22;18338;53.240;8.798;2022-11-25T12:25:18;12.80;99.90
31765;DHT22;18338;53.240;8.798;2022-11-25T12:30:21;11.70;99.90
31765;DHT22;18338;53.240;8.798;2022-11-25T12:33:26;11.50;99.90
31765;DHT22;18338;53.240;8.798;2022-11-25T12:36:07;11.10;99.90
31765;DHT22;18338;53.240;8.798;2022-11-25T12:38:56;10.70;99.90
31765;DHT22;18338;53.240;8.798;2022-11-25T12:41:49;10.50;99.90
31765;DHT22;18338;53.240;8.798;2022-11-25T12:46:57;10.90;99.90
31765;DHT22;18338;53.240;8.798;2022-11-25T12:49:34;11.10;99.90
31765;DHT22;18338;53.240;8.798;2022-11-25T12:55:11;13.10;99.90
31765;DHT22;18338;53.240;8.798;2022-11-25T12:58:07;14.10;99.90
31765;DHT22;18338;53.240;8.798;2022-11-25T13:09:04;15.10;99.90
31765;DHT22;18338;53.240;8.798;2022-11-25T13:11:53;15.30;99.90
31765;DHT22;18338;53.240;8.798;2022-11-25T13:17:15;15.30;99.90
31765;DHT22;18338;53.240;8.798;2022-11-25T13:19:43;14.80;99.90
31765;DHT22;18338;53.240;8.798;2022-11-25T13:24:46;13.00;99.90
31765;DHT22;18338;53.240;8.798;2022-11-25T13:27:54;12.50;99.90
31765;DHT22;18338;53.240;8.798;2022-11-25T13:31:21;12.00;99.90
31765;DHT22;18338;53.240;8.798;2022-11-25T13:36:23;11.50;99.90
31765;DHT22;18338;53.240;8.798;2022-11-25T13:41:47;10.90;99.90
31765;DHT22;18338;53.240;8.798;2022-11-25T13:44:31;10.90;99.90
31765;DHT22;18338;53.240;8.798;2022-11-25T13:49:51;10.60;99.90
31765;DHT22;18338;53.240;8.798;2022-11-25T13:52:35;10.60;99.90
31765;DHT22;18338;53.240;8.798;2022-11-25T13:55:20;10.50;99.90
31765;DHT22;18338;53.240;8.798;2022-11-25T14:08:41;10.80;99.90
31765;DHT22;18338;53.240;8.798;2022-11-25T14:22:31;10.70;99.90
31765;DHT22;18338;53.240;8.798;2022-11-25T14:27:45;10.40;99.90
31765;DHT22;18338;53.240;8.798;2022-11-25T14:30:14;10.30;99.90
31765;DHT22;18338;53.240;8.798;2022-11-25T14:33:05;10.30;99.90
31765;DHT22;18338;53.240;8.798;2022-11-25T14:35:40;10.20;99.90
31765;DHT22;18338;53.240;8.798;2022-11-25T14:38:16;10.20;99.90
31765;DHT22;18338;53.240;8.798;2022-11-25T14:43:38;10.10;99.90
31765;DHT22;18338;53.240;8.798;2022-11-25T14:46:20;10.00;99.90
31765;DHT22;18338;53.240;8.798;2022-11-25T14:48:58;10.00;99.90
31765;DHT22;18338;53.240;8.798;2022-11-25T14:51:32;9.90;99.90
31765;DHT22;18338;53.240;8.798;2022-11-25T14:53:59;9.70;99.90
31765;DHT22;18338;53.240;8.798;2022-11-25T14:56:32;9.50;99.90
31765;DHT22;18338;53.240;8.798;2022-11-25T14:58:59;9.30;99.90
31765;DHT22;18338;53.240;8.798;2022-11-25T15:01:31;9.10;99.90
31765;DHT22;18338;53.240;8.798;2022-11-25T15:04:05;8.90;99.90
31765;DHT22;18338;53.240;8.798;2022-11-25T15:06:38;8.80;99.90
31765;DHT22;18338;53.240;8.798;2022-11-25T15:11:43;8.70;99.90
31765;DHT22;18338;53.240;8.798;2022-11-25T15:14:18;8.60;99.90
31765;DHT22;18338;53.240;8.798;2022-11-25T15:16:47;8.70;99.90
31765;DHT22;18338;53.240;8.798;2022-11-25T15:19:20;8.80;99.90
31765;DHT22;18338;53.240;8.798;2022-11-25T15:21:55;8.70;99.90
31765;DHT22;18338;53.240;8.798;2022-11-25T15:24:48;8.80;99.90
31765;DHT22;18338;53.240;8.798;2022-11-25T15:27:22;8.90;99.90
31765;DHT22;18338;53.240;8.798;2022-11-25T15:29:51;8.80;99.90
31765;DHT22;18338;53.240;8.798;2022-11-25T15:34:52;8.90;99.90
31765;DHT22;18338;53.240;8.798;2022-11-25T15:37:19;9.00;99.90
31765;DHT22;18338;53.240;8.798;2022-11-25T15:39:46;9.00;99.90
31765;DHT22;18338;53.240;8.798;2022-11-25T15:42:21;9.10;99.90
31765;DHT22;18338;53.240;8.798;2022-11-25T15:44:57;9.20;99.90
31765;DHT22;18338;53.240;8.798;2022-11-25T15:47:34;9.10;99.90
31765;DHT22;18338;53.240;8.798;2022-11-25T15:52:34;8.90;99.90
31765;DHT22;18338;53.240;8.798;2022-11-25T15:55:04;8.90;99.90
31765;DHT22;18338;53.240;8.798;2022-11-25T15:57:34;8.90;99.90
31765;DHT22;18338;53.240;8.798;2022-11-25T16:05:30;9.00;99.90
31765;DHT22;18338;53.240;8.798;2022-11-25T16:08:00;9.20;99.90
31765;DHT22;18338;53.240;8.798;2022-11-25T16:15:52;9.30;99.90
31765;DHT22;18338;53.240;8.798;2022-11-25T16:18:22;9.20;99.90
31765;DHT22;18338;53.240;8.798;2022-11-25T16:21:11;9.30;99.90
31765;DHT22;18338;53.240;8.798;2022-11-25T16:23:43;9.30;99.90
31765;DHT22;18338;53.240;8.798;2022-11-25T16:28:42;9.30;99.90
31765;DHT22;18338;53.240;8.798;2022-11-25T16:31:16;9.30;99.90
31765;DHT22;18338;53.240;8.798;2022-11-25T16:33:43;9.10;99.90
31765;DHT22;18338;53.240;8.798;2022-11-25T16:36:09;8.90;99.90
31765;DHT22;18338;53.240;8.798;2022-11-25T16:38:36;8.70;99.90
31765;DHT22;18338;53.240;8.798;2022-11-25T16:41:09;8.60;99.90
31765;DHT22;18338;53.240;8.798;2022-11-25T16:43:37;8.60;99.90
31765;DHT22;18338;53.240;8.798;2022-11-25T16:46:05;8.70;99.90
31765;DHT22;18338;53.240;8.798;2022-11-25T16:48:32;8.80;99.90
31765;DHT22;18338;53.240;8.798;2022-11-25T16:50:59;8.80;99.90
31765;DHT22;18338;53.240;8.798;2022-11-25T16:53:26;8.80;99.90
31765;DHT22;18338;53.240;8.798;2022-11-25T16:55:52;8.90;99.90
31765;DHT22;18338;53.240;8.798;2022-11-25T16:58:21;9.00;99.90
31765;DHT22;18338;53.240;8.798;2022-11-25T17:00:54;8.90;99.90
31765;DHT22;18338;53.240;8.798;2022-11-25T17:03:22;8.80;99.90
31765;DHT22;18338;53.240;8.798;2022-11-25T17:05:52;8.70;99.90
31765;DHT22;18338;53.240;8.798;2022-11-25T17:08:20;8.50;99.90
31765;DHT22;18338;53.240;8.798;2022-11-25T17:10:48;8.40;99.90
31765;DHT22;18338;53.240;8.798;2022-11-25T17:13:20;8.30;99.90
31765;DHT22;18338;53.240;8.798;2022-11-25T17:15:48;8.30;99.90
31765;DHT22;18338;53.240;8.798;2022-11-25T17:18:16;8.30;99.90
31765;DHT22;18338;53.240;8.798;2022-11-25T17:20:45;8.30;99.90
31765;DHT22;18338;53.240;8.798;2022-11-25T17:23:29;8.20;99.90
31765;DHT22;18338;53.240;8.798;2022-11-25T17:25:56;8.30;99.90
31765;DHT22;18338;53.240;8.798;2022-11-25T17:28:23;8.30;99.90
31765;DHT22;18338;53.240;8.798;2022-11-25T17:30:50;8.40;99.90
31765;DHT22;18338;53.240;8.798;2022-11-25T17:33:18;8.50;99.90
31765;DHT22;18338;53.240;8.798;2022-11-25T17:35:45;8.60;99.90
31765;DHT22;18338;53.240;8.798;2022-11-25T17:38:18;8.80;99.90
31765;DHT22;18338;53.240;8.798;2022-11-25T17:40:46;8.80;99.90
31765;DHT22;18338;53.240;8.798;2022-11-25T17:43:18;8.80;99.90
31765;DHT22;18338;53.240;8.798;2022-11-25T17:45:47;8.80;99.90
31765;DHT22;18338;53.240;8.798;2022-11-25T17:48:16;8.90;99.90
31765;DHT22;18338;53.240;8.798;2022-11-25T17:50:43;8.90;99.90
31765;DHT22;18338;53.240;8.798;2022-11-25T17:53:12;9.00;99.90
31765;DHT22;18338;53.240;8.798;2022-11-25T17:55:39;8.90;99.90
31765;DHT22;18338;53.240;8.798;2022-11-25T17:58:09;8.90;99.90
31765;DHT22;18338;53.240;8.798;2022-11-25T18:00:37;9.00;99.90
31765;DHT22;18338;53.240;8.798;2022-11-25T18:03:11;9.10;99.90
31765;DHT22;18338;53.240;8.798;2022-11-25T18:05:38;9.00;99.90
31765;DHT22;18338;53.240;8.798;2022-11-25T18:08:05;9.00;99.90
31765;DHT22;18338;53.240;8.798;2022-11-25T18:10:32;9.10;99.90
31765;DHT22;18338;53.240;8.798;2022-11-25T18:12:59;9.10;99.90
31765;DHT22;18338;53.240;8.798;2022-11-25T18:15:29;9.10;99.90
31765;DHT22;18338;53.240;8.798;2022-11-25T18:18:13;9.20;99.90
31765;DHT22;18338;53.240;8.798;2022-11-25T18:20:41;9.20;99.90
31765;DHT22;18338;53.240;8.798;2022-11-25T18:23:08;9.10;99.90
31765;DHT22;18338;53.240;8.798;2022-11-25T18:25:35;9.20;99.90